createdAt,value
2019-03-04T00:02:25.131Z,9.00
2019-03-04T00:04:53.603Z,9.00
2019-03-04T00:07:22.123Z,9.00
2019-03-04T00:09:50.667Z,9.10
2019-03-04T00:12:19.191Z,9.10
2019-03-04T00:14:47.643Z,9.10
2019-03-04T00:17:16.209Z,9.10
2019-03-04T00:19:44.744Z,9.10
2019-03-04T00:22:13.276Z,9.20
2019-03-04T00:24:41.832Z,9.20
2019-03-04T00:27:10.291Z,9.20
2019-03-04T00:29:38.749Z,9.20
2019-03-04T00:32:07.246Z,9.20
2019-03-04T00:34:35.772Z,9.20
2019-03-04T00:37:04.299Z,9.20
2019-03-04T00:39:32.851Z,9.30
2019-03-04T00:42:01.375Z,9.30
2019-03-04T00:44:29.833Z,9.30
2019-03-04T00:46:58.316Z,9.30
2019-03-04T00:49:26.767Z,9.30
2019-03-04T00:51:55.223Z,9.30
2019-03-04T00:54:23.783Z,9.40
2019-03-04T00:56:52.234Z,9.40
2019-03-04T00:59:20.999Z,9.30
2019-03-04T01:01:49.484Z,9.30
2019-03-04T01:04:18.015Z,9.30
2019-03-04T01:06:46.484Z,9.30
2019-03-04T01:09:15.759Z,9.30
2019-03-04T01:11:44.783Z,9.40
2019-03-04T01:14:13.240Z,9.40
2019-03-04T01:16:41.719Z,9.30
2019-03-04T01:19:10.712Z,9.30
2019-03-04T01:21:39.158Z,9.40
2019-03-04T01:24:07.647Z,9.40
2019-03-04T01:26:36.108Z,9.40
2019-03-04T01:29:04.634Z,9.40
2019-03-04T01:31:33.190Z,9.40
2019-03-04T01:34:01.645Z,9.40
2019-03-04T01:36:30.106Z,9.40
2019-03-04T01:38:58.671Z,9.50
2019-03-04T01:41:27.128Z,9.50
2019-03-04T01:43:55.655Z,9.40
2019-03-04T01:46:24.151Z,9.50
2019-03-04T01:48:52.619Z,9.50
2019-03-04T01:51:21.139Z,9.40
2019-03-04T01:53:49.634Z,9.50
2019-03-04T01:56:18.092Z,9.50
2019-03-04T01:58:46.545Z,9.50
2019-03-04T02:01:15.229Z,9.50
2019-03-04T02:03:43.765Z,9.50
2019-03-04T02:06:12.369Z,9.50
2019-03-04T02:08:40.852Z,9.50
2019-03-04T02:11:09.455Z,9.40
2019-03-04T02:13:37.911Z,9.50
2019-03-04T02:16:06.480Z,9.50
2019-03-04T02:18:34.935Z,9.40
2019-03-04T02:21:03.407Z,9.40
2019-03-04T02:23:32.008Z,9.40
2019-03-04T02:26:03.536Z,9.40
2019-03-04T02:28:31.987Z,9.40
2019-03-04T02:31:00.523Z,9.40
2019-03-04T02:33:29.016Z,9.40
2019-03-04T02:35:57.641Z,9.40
2019-03-04T02:38:26.175Z,9.40
2019-03-04T02:40:54.707Z,9.40
2019-03-04T02:43:23.165Z,9.50
2019-03-04T02:45:51.794Z,9.50
2019-03-04T02:48:20.251Z,9.50
2019-03-04T02:50:48.776Z,9.50
2019-03-04T02:53:17.348Z,9.50
2019-03-04T02:55:45.887Z,9.60
2019-03-04T02:58:14.494Z,9.50
2019-03-04T03:00:43.456Z,9.50
2019-03-04T03:03:12.219Z,9.50
2019-03-04T03:05:40.740Z,9.50
2019-03-04T03:08:09.427Z,9.50
2019-03-04T03:10:37.885Z,9.50
2019-03-04T03:13:06.484Z,9.50
2019-03-04T03:15:34.976Z,9.50
2019-03-04T03:18:03.496Z,9.50
2019-03-04T03:20:32.039Z,9.40
2019-03-04T03:23:00.620Z,9.40
2019-03-04T03:25:29.233Z,9.40
2019-03-04T03:27:57.766Z,9.50
2019-03-04T03:30:26.409Z,9.40
2019-03-04T03:33:14.213Z,9.40
2019-03-04T03:35:42.776Z,9.40
2019-03-04T03:38:11.295Z,9.40
2019-03-04T03:40:39.835Z,9.40
2019-03-04T03:43:08.476Z,9.30
2019-03-04T03:45:37.068Z,9.30
2019-03-04T03:48:05.742Z,9.30
2019-03-04T03:50:34.372Z,9.20
2019-03-04T03:53:02.900Z,9.20
2019-03-04T03:55:31.358Z,9.20
2019-03-04T03:57:59.911Z,9.20
2019-03-04T04:00:28.441Z,9.20
2019-03-04T04:02:56.977Z,9.20
2019-03-04T04:05:25.607Z,9.20
2019-03-04T04:07:54.131Z,9.20
2019-03-04T04:10:22.662Z,9.10
2019-03-04T04:12:51.283Z,9.10
2019-03-04T04:15:20.581Z,9.10
2019-03-04T04:17:49.203Z,9.10
2019-03-04T04:20:17.815Z,9.10
2019-03-04T04:22:46.340Z,9.10
2019-03-04T04:25:15.112Z,9.10
2019-03-04T04:27:43.735Z,9.10
2019-03-04T04:30:15.403Z,9.10
2019-03-04T04:32:43.859Z,9.10
2019-03-04T04:35:12.484Z,9.10
2019-03-04T04:37:40.931Z,9.10
2019-03-04T04:40:13.460Z,9.10
2019-03-04T04:42:42.027Z,9.10
2019-03-04T04:45:10.983Z,9.10
2019-03-04T04:47:41.170Z,9.10
2019-03-04T04:50:12.983Z,9.10
2019-03-04T04:52:41.435Z,9.10
2019-03-04T04:55:10.023Z,9.10
2019-03-04T04:57:38.528Z,9.10
2019-03-04T05:00:10.086Z,9.10
2019-03-04T05:02:38.535Z,9.10
2019-03-04T05:05:07.359Z,9.10
2019-03-04T05:07:36.124Z,9.20
2019-03-04T05:10:07.787Z,9.20
2019-03-04T05:12:36.279Z,9.10
2019-03-04T05:15:07.472Z,9.20
2019-03-04T05:17:35.995Z,9.20
2019-03-04T05:20:09.931Z,9.20
2019-03-04T05:22:38.470Z,9.20
2019-03-04T05:25:07.051Z,9.30
2019-03-04T05:27:35.543Z,9.40
2019-03-04T05:30:06.279Z,9.50
2019-03-04T05:32:34.742Z,9.50
2019-03-04T05:35:06.701Z,9.40
2019-03-04T05:37:35.304Z,9.40
2019-03-04T05:40:06.164Z,9.30
2019-03-04T05:42:34.655Z,9.30
2019-03-04T05:45:03.290Z,9.30
2019-03-04T05:47:31.823Z,9.30
2019-03-04T05:50:00.344Z,9.30
2019-03-04T05:52:28.804Z,9.30
2019-03-04T05:54:57.338Z,9.20
2019-03-04T05:57:25.823Z,9.20
2019-03-04T05:59:54.271Z,9.20
2019-03-04T06:02:25.041Z,9.10
2019-03-04T06:04:52.947Z,9.20
2019-03-04T06:07:23.118Z,9.20
2019-03-04T06:09:51.817Z,9.20
2019-03-04T06:12:20.404Z,9.30
2019-03-04T06:14:48.899Z,9.30
2019-03-04T06:17:17.355Z,9.30
2019-03-04T06:19:45.847Z,9.30
2019-03-04T06:22:14.312Z,9.30
2019-03-04T06:24:42.771Z,9.30
2019-03-04T06:27:11.276Z,9.30
2019-03-04T06:29:39.727Z,9.30
2019-03-04T06:32:08.190Z,9.30
2019-03-04T06:34:36.763Z,9.30
2019-03-04T06:37:05.282Z,9.30
2019-03-04T06:39:33.853Z,9.40
2019-03-04T06:42:02.413Z,9.40
2019-03-04T06:44:30.956Z,9.40
2019-03-04T06:46:59.480Z,9.40
2019-03-04T06:49:27.992Z,9.30
2019-03-04T06:51:56.525Z,9.30
2019-03-04T06:54:46.251Z,9.30
2019-03-04T06:57:14.702Z,9.30
2019-03-04T06:59:58.252Z,9.30
2019-03-04T07:02:29.789Z,9.40
2019-03-04T07:05:31.659Z,9.40
2019-03-04T07:08:00.131Z,9.40
2019-03-04T07:10:28.661Z,9.50
2019-03-04T07:12:59.219Z,9.60
2019-03-04T07:15:27.695Z,9.70
2019-03-04T07:17:56.221Z,9.80
2019-03-04T07:20:24.856Z,9.90
2019-03-04T07:22:53.341Z,10.10
2019-03-04T07:25:26.305Z,10.20
2019-03-04T07:27:56.729Z,10.30
2019-03-04T07:30:29.767Z,10.30
2019-03-04T07:32:58.271Z,10.40
2019-03-04T07:35:30.848Z,10.40
2019-03-04T07:38:22.131Z,10.40
2019-03-04T07:40:50.895Z,10.50
2019-03-04T07:43:19.423Z,10.70
2019-03-04T07:45:47.895Z,10.80
2019-03-04T07:48:16.584Z,10.70
2019-03-04T07:50:45.151Z,10.80
2019-03-04T07:53:13.710Z,10.80
2019-03-04T07:55:42.339Z,10.80
2019-03-04T07:58:10.803Z,10.80
2019-03-04T08:00:39.408Z,11.10
2019-03-04T08:03:07.907Z,11.30
2019-03-04T08:05:37.908Z,11.40
2019-03-04T08:08:08.827Z,11.70
2019-03-04T08:10:52.635Z,11.80
2019-03-04T08:13:30.513Z,12.00
2019-03-04T08:15:59.485Z,12.10
2019-03-04T08:18:28.068Z,12.20
2019-03-04T08:20:56.623Z,12.30
2019-03-04T08:23:35.397Z,12.20
2019-03-04T08:26:05.503Z,12.40
2019-03-04T08:28:33.983Z,12.50
2019-03-04T08:31:02.557Z,12.50
2019-03-04T08:33:31.139Z,12.40
2019-03-04T08:35:59.602Z,12.40
2019-03-04T08:38:28.232Z,12.50
2019-03-04T08:40:56.692Z,12.50
2019-03-04T08:43:25.151Z,12.60
2019-03-04T08:45:53.843Z,12.70
2019-03-04T08:48:22.307Z,12.80
2019-03-04T08:50:50.855Z,12.90
2019-03-04T08:53:19.516Z,13.00
2019-03-04T08:55:47.977Z,13.50
2019-03-04T08:58:16.606Z,14.00
2019-03-04T09:00:45.219Z,14.90
2019-03-04T09:03:13.763Z,15.20
2019-03-04T09:05:42.291Z,15.50
2019-03-04T09:08:10.852Z,15.50
2019-03-04T09:10:39.375Z,15.40
2019-03-04T09:13:07.906Z,15.70
2019-03-04T09:15:36.620Z,16.30
2019-03-04T09:18:05.531Z,15.90
2019-03-04T09:20:34.063Z,15.30
2019-03-04T09:23:02.703Z,14.20
2019-03-04T09:25:36.930Z,13.70
2019-03-04T09:28:05.533Z,13.30
2019-03-04T09:30:34.278Z,13.00
2019-03-04T09:33:02.904Z,13.00
2019-03-04T09:35:32.640Z,12.80
2019-03-04T09:38:01.473Z,12.80
2019-03-04T09:40:32.310Z,12.70
2019-03-04T09:43:02.480Z,12.70
2019-03-04T09:45:38.441Z,12.60
2019-03-04T09:48:01.458Z,12.60
2019-03-04T09:50:31.539Z,12.70
2019-03-04T09:53:00.145Z,12.70
2019-03-04T09:55:28.768Z,12.80
2019-03-04T09:57:57.371Z,12.80
2019-03-04T10:00:31.703Z,13.00
2019-03-04T10:03:27.103Z,13.10
2019-03-04T10:06:04.725Z,13.30
2019-03-04T10:08:36.351Z,13.50
2019-03-04T10:11:10.463Z,13.70
2019-03-04T10:13:42.007Z,13.80
2019-03-04T10:16:19.315Z,14.10
2019-03-04T10:19:09.504Z,14.30
2019-03-04T10:21:41.062Z,15.30
2019-03-04T10:24:15.535Z,16.00
2019-03-04T10:27:20.373Z,15.70
2019-03-04T10:29:54.800Z,16.60
2019-03-04T10:32:53.796Z,17.10
2019-03-04T10:35:31.051Z,17.40
2019-03-04T10:38:22.292Z,17.80
2019-03-04T10:40:51.065Z,17.50
2019-03-04T10:43:34.768Z,17.70
2019-03-04T10:46:33.288Z,18.30
2019-03-04T10:49:01.843Z,18.50
2019-03-04T10:51:30.448Z,18.00
2019-03-04T10:53:59.047Z,18.00
2019-03-04T10:56:27.614Z,17.90
2019-03-04T10:58:56.075Z,18.50
2019-03-04T11:01:30.346Z,18.70
2019-03-04T11:03:54.919Z,18.00
2019-03-04T11:06:23.672Z,17.20
2019-03-04T11:08:52.177Z,16.00
2019-03-04T11:11:29.424Z,15.80
2019-03-04T11:13:50.923Z,15.60
2019-03-04T11:16:19.451Z,15.80
2019-03-04T11:18:47.962Z,15.80
2019-03-04T11:21:17.703Z,15.90
2019-03-04T11:23:46.203Z,16.40
2019-03-04T11:26:14.763Z,16.50
2019-03-04T11:28:43.459Z,16.60
2019-03-04T11:31:12.207Z,16.60
2019-03-04T11:33:40.921Z,16.40
2019-03-04T11:36:09.585Z,16.50
2019-03-04T11:38:50.063Z,16.60
2019-03-04T11:41:21.176Z,16.60
2019-03-04T11:43:50.875Z,16.80
2019-03-04T11:46:21.028Z,17.30
2019-03-04T11:48:49.587Z,17.70
2019-03-04T11:51:18.150Z,18.10
2019-03-04T11:53:46.648Z,18.30
2019-03-04T11:56:15.248Z,17.90
2019-03-04T11:58:43.774Z,17.50
2019-03-04T12:01:29.495Z,16.90
2019-03-04T12:03:58.027Z,16.40
2019-03-04T12:06:26.555Z,16.00
2019-03-04T12:08:55.035Z,15.80
2019-03-04T12:11:23.499Z,15.70
2019-03-04T12:13:51.967Z,15.50
2019-03-04T12:16:20.629Z,15.30
2019-03-04T12:18:49.229Z,15.20
2019-03-04T12:21:17.799Z,15.10
2019-03-04T12:23:46.555Z,15.00
2019-03-04T12:26:15.136Z,15.00
2019-03-04T12:28:43.690Z,15.00
2019-03-04T12:31:12.334Z,14.90
2019-03-04T12:33:41.055Z,15.00
2019-03-04T12:36:09.602Z,14.90
2019-03-04T12:38:38.230Z,15.00
2019-03-04T12:41:06.822Z,15.10
2019-03-04T12:43:35.377Z,15.10
2019-03-04T12:46:04.040Z,15.10
2019-03-04T12:48:32.799Z,15.10
2019-03-04T12:51:01.431Z,15.20
2019-03-04T12:53:37.094Z,15.20
2019-03-04T12:56:19.727Z,15.30
2019-03-04T12:58:48.308Z,15.30
2019-03-04T13:01:16.857Z,15.40
2019-03-04T13:03:56.501Z,15.60
2019-03-04T13:06:25.027Z,15.70
2019-03-04T13:08:53.487Z,15.80
2019-03-04T13:11:21.979Z,15.80
2019-03-04T13:13:50.513Z,15.90
2019-03-04T13:16:19.023Z,15.60
2019-03-04T13:18:47.598Z,15.50
2019-03-04T13:21:16.050Z,15.40
2019-03-04T13:23:44.531Z,15.40
2019-03-04T13:26:13.452Z,15.40
2019-03-04T13:28:41.988Z,15.40
2019-03-04T13:31:10.528Z,15.40
2019-03-04T13:33:39.173Z,15.40
2019-03-04T13:36:08.068Z,15.40
2019-03-04T13:38:36.621Z,15.40
2019-03-04T13:41:05.259Z,15.30
2019-03-04T13:43:33.743Z,15.20
2019-03-04T13:46:02.347Z,15.20
2019-03-04T13:48:30.991Z,15.10
2019-03-04T13:50:59.521Z,15.10
2019-03-04T13:53:27.978Z,15.10
2019-03-04T13:55:56.488Z,15.10
2019-03-04T13:58:25.022Z,15.10
2019-03-04T14:00:53.549Z,15.10
2019-03-04T14:03:22.042Z,15.10
2019-03-04T14:05:50.509Z,15.10
2019-03-04T14:08:19.126Z,15.00
2019-03-04T14:10:49.171Z,15.00
2019-03-04T14:13:17.811Z,14.90
2019-03-04T14:15:54.152Z,14.90
2019-03-04T14:18:22.632Z,14.90
2019-03-04T14:20:51.156Z,14.90
2019-03-04T14:23:19.655Z,14.80
2019-03-04T14:25:49.848Z,14.80
2019-03-04T14:28:19.012Z,14.80
2019-03-04T14:30:47.517Z,14.80
2019-03-04T14:33:16.161Z,14.80
2019-03-04T14:35:45.014Z,14.80
2019-03-04T14:38:13.651Z,14.70
2019-03-04T14:40:42.190Z,14.60
2019-03-04T14:43:10.716Z,14.60
2019-03-04T14:45:39.276Z,14.60
2019-03-04T14:48:07.811Z,14.60
2019-03-04T14:50:36.339Z,14.70
2019-03-04T14:53:04.977Z,14.60
2019-03-04T14:55:40.127Z,14.60
2019-03-04T14:58:08.677Z,14.60
2019-03-04T15:00:40.352Z,14.60
2019-03-04T15:03:19.086Z,14.60
2019-03-04T15:05:39.416Z,14.60
2019-03-04T15:08:08.064Z,14.60
2019-03-04T15:10:36.537Z,14.50
2019-03-04T15:13:05.203Z,14.50
2019-03-04T15:15:35.307Z,14.60
2019-03-04T15:18:03.920Z,14.60
2019-03-04T15:20:33.938Z,14.60
2019-03-04T15:23:02.567Z,14.70
2019-03-04T15:25:41.651Z,14.80
2019-03-04T15:28:15.915Z,14.80
2019-03-04T15:30:47.571Z,14.80
2019-03-04T15:33:18.514Z,14.70
2019-03-04T15:35:46.458Z,14.80
2019-03-04T15:38:14.989Z,14.70
2019-03-04T15:40:43.515Z,14.60
2019-03-04T15:43:12.087Z,14.60
2019-03-04T15:45:42.332Z,14.60
2019-03-04T15:48:11.016Z,14.70
2019-03-04T15:50:39.591Z,14.70
2019-03-04T15:53:08.098Z,14.70
2019-03-04T15:55:36.656Z,14.70
2019-03-04T15:58:05.497Z,14.80
2019-03-04T16:00:35.604Z,14.90
2019-03-04T16:03:05.343Z,14.90
2019-03-04T16:05:33.135Z,14.90
2019-03-04T16:08:07.594Z,14.90
2019-03-04T16:10:35.399Z,14.90
2019-03-04T16:13:03.963Z,14.90
2019-03-04T16:15:33.065Z,14.90
2019-03-04T16:18:01.528Z,14.80
2019-03-04T16:20:30.177Z,14.70
2019-03-04T16:22:58.887Z,14.60
2019-03-04T16:25:27.420Z,14.50
2019-03-04T16:28:01.266Z,14.40
2019-03-04T16:30:30.023Z,14.40
2019-03-04T16:32:59.191Z,14.30
2019-03-04T16:35:27.775Z,14.20
2019-03-04T16:37:56.373Z,14.20
2019-03-04T16:40:25.897Z,14.20
2019-03-04T16:42:54.398Z,14.10
2019-03-04T16:45:23.603Z,14.10
2019-03-04T16:48:11.572Z,14.10
2019-03-04T16:50:44.765Z,14.10
2019-03-04T16:53:31.191Z,14.10
2019-03-04T16:55:59.723Z,14.10
2019-03-04T16:58:28.257Z,14.10
2019-03-04T17:00:57.093Z,14.00
2019-03-04T17:03:25.550Z,14.00
2019-03-04T17:05:54.254Z,13.90
2019-03-04T17:08:22.807Z,13.90
2019-03-04T17:10:52.885Z,13.90
2019-03-04T17:13:21.487Z,13.90
2019-03-04T17:15:50.198Z,13.90
2019-03-04T17:18:18.655Z,13.90
2019-03-04T17:20:47.192Z,13.80
2019-03-04T17:23:15.870Z,13.80
2019-03-04T17:25:44.463Z,13.80
2019-03-04T17:28:13.067Z,13.70
2019-03-04T17:30:41.913Z,13.70
2019-03-04T17:33:10.524Z,13.70
2019-03-04T17:35:39.231Z,13.60
2019-03-04T17:38:07.732Z,13.50
2019-03-04T17:40:36.195Z,13.50
2019-03-04T17:43:04.909Z,13.50
2019-03-04T17:45:33.696Z,13.50
2019-03-04T17:48:02.227Z,13.40
2019-03-04T17:50:41.622Z,13.40
2019-03-04T17:53:12.298Z,13.40
2019-03-04T17:55:41.151Z,13.40
2019-03-04T17:58:09.822Z,13.40
2019-03-04T18:00:39.995Z,13.10
2019-03-04T18:03:08.688Z,12.90
2019-03-04T18:05:37.313Z,12.60
2019-03-04T18:08:05.916Z,12.20
2019-03-04T18:10:34.585Z,11.90
2019-03-04T18:13:05.723Z,11.60
2019-03-04T18:15:41.663Z,11.40
2019-03-04T18:18:10.373Z,11.20
2019-03-04T18:20:38.963Z,11.10
2019-03-04T18:23:07.563Z,11.00
2019-03-04T18:25:54.634Z,10.90
2019-03-04T18:28:31.866Z,10.90
2019-03-04T18:31:27.504Z,10.70
2019-03-04T18:34:01.718Z,10.60
2019-03-04T18:36:42.150Z,10.40
2019-03-04T18:39:25.836Z,10.10
2019-03-04T18:42:12.522Z,10.00
2019-03-04T18:44:49.971Z,9.90
2019-03-04T18:47:40.909Z,9.80
2019-03-04T18:50:09.500Z,9.60
2019-03-04T18:52:38.046Z,9.50
2019-03-04T18:55:08.678Z,9.40
2019-03-04T18:57:37.276Z,9.40
2019-03-04T19:00:15.889Z,9.30
2019-03-04T19:02:44.355Z,9.30
2019-03-04T19:05:13.250Z,9.20
2019-03-04T19:07:41.885Z,9.10
2019-03-04T19:10:12.183Z,9.00
2019-03-04T19:12:40.906Z,9.00
2019-03-04T19:15:11.221Z,8.90
2019-03-04T19:17:39.675Z,8.80
2019-03-04T19:20:19.821Z,8.90
2019-03-04T19:22:48.276Z,8.90
2019-03-04T19:25:16.731Z,8.90
2019-03-04T19:27:45.291Z,8.90
2019-03-04T19:30:15.391Z,9.00
2019-03-04T19:32:44.082Z,9.20
2019-03-04T19:35:14.308Z,9.30
2019-03-04T19:37:43.084Z,9.40
2019-03-04T19:40:16.500Z,9.30
2019-03-04T19:42:45.203Z,9.40
2019-03-04T19:45:18.384Z,9.50
2019-03-04T19:47:47.080Z,9.50
2019-03-04T19:50:16.196Z,9.60
2019-03-04T19:52:45.188Z,9.60
2019-03-04T19:55:15.427Z,9.80
2019-03-04T19:57:44.002Z,10.10
2019-03-04T20:00:21.983Z,10.00
2019-03-04T20:02:50.704Z,10.00
2019-03-04T20:05:20.368Z,10.00
2019-03-04T20:07:49.091Z,10.10
2019-03-04T20:10:18.087Z,10.10
2019-03-04T20:12:46.882Z,10.10
2019-03-04T20:15:26.750Z,10.00
2019-03-04T20:17:56.593Z,9.90
2019-03-04T20:20:25.465Z,9.80
2019-03-04T20:22:54.131Z,9.80
2019-03-04T20:25:23.533Z,9.70
2019-03-04T20:27:52.308Z,9.60
2019-03-04T20:30:22.228Z,9.60
2019-03-04T20:32:51.167Z,9.70
2019-03-04T20:35:20.483Z,9.80
2019-03-04T20:37:52.134Z,9.90
2019-03-04T20:40:20.987Z,10.00
2019-03-04T20:42:49.543Z,10.10
2019-03-04T20:45:19.934Z,10.00
2019-03-04T20:47:48.539Z,10.00
2019-03-04T20:50:20.072Z,10.00
2019-03-04T20:52:48.930Z,10.00
2019-03-04T20:55:17.795Z,10.10
2019-03-04T20:57:46.798Z,10.00
2019-03-04T21:00:25.983Z,10.00
2019-03-04T21:02:54.794Z,9.90
2019-03-04T21:05:25.722Z,9.80
2019-03-04T21:07:54.144Z,9.90
2019-03-04T21:10:22.747Z,9.80
2019-03-04T21:12:52.415Z,9.70
2019-03-04T21:15:21.046Z,9.80
2019-03-04T21:17:49.813Z,9.80
2019-03-04T21:20:19.212Z,9.70
2019-03-04T21:22:48.050Z,9.70
2019-03-04T21:25:54.377Z,9.60
2019-03-04T21:28:49.547Z,9.60
2019-03-04T21:31:43.363Z,9.50
2019-03-04T21:34:40.786Z,9.60
2019-03-04T21:37:21.539Z,9.50
2019-03-04T21:39:59.092Z,9.60
2019-03-04T21:42:33.528Z,9.60
2019-03-04T21:45:05.100Z,9.70
2019-03-04T21:47:45.924Z,9.70
2019-03-04T21:50:17.626Z,9.70
2019-03-04T21:52:57.729Z,9.60
2019-03-04T21:55:31.874Z,9.60
2019-03-04T21:58:00.638Z,9.60
2019-03-04T22:00:32.468Z,9.60
2019-03-04T22:03:04.099Z,9.50
2019-03-04T22:05:32.679Z,9.40
2019-03-04T22:08:01.266Z,9.40
2019-03-04T22:10:30.002Z,9.40
2019-03-04T22:12:58.661Z,9.30
2019-03-04T22:15:27.727Z,9.20
2019-03-04T22:17:56.532Z,9.20
2019-03-04T22:20:25.234Z,9.10
2019-03-04T22:22:53.894Z,9.00
2019-03-04T22:25:22.548Z,9.00
2019-03-04T22:27:51.128Z,9.00
2019-03-04T22:30:20.351Z,8.90
2019-03-04T22:32:49.042Z,8.90
2019-03-04T22:35:17.786Z,8.90
2019-03-04T22:37:46.504Z,8.90
2019-03-04T22:40:26.818Z,8.90
2019-03-04T22:42:55.666Z,8.90
2019-03-04T22:45:24.309Z,8.90
2019-03-04T22:47:53.170Z,8.90
2019-03-04T22:50:22.843Z,8.90
2019-03-04T22:52:50.662Z,8.90
2019-03-04T22:55:31.193Z,8.90
2019-03-04T22:57:59.700Z,8.90
2019-03-04T23:00:54.098Z,8.90
2019-03-04T23:03:25.225Z,9.00
2019-03-04T23:05:59.590Z,8.90
2019-03-04T23:08:28.120Z,9.00
2019-03-04T23:10:56.576Z,8.90
2019-03-04T23:13:40.243Z,9.00
2019-03-04T23:16:18.225Z,9.00
2019-03-04T23:18:46.723Z,9.00
2019-03-04T23:21:15.255Z,9.00
2019-03-04T23:23:43.860Z,9.00
2019-03-04T23:26:12.363Z,9.10
2019-03-04T23:28:40.815Z,9.10
2019-03-04T23:31:09.415Z,9.00
2019-03-04T23:33:37.975Z,9.00
2019-03-04T23:36:06.576Z,8.90
2019-03-04T23:38:35.100Z,9.00
2019-03-04T23:41:03.669Z,9.00
2019-03-04T23:43:32.996Z,9.00
2019-03-04T23:46:01.603Z,9.00
2019-03-04T23:48:30.336Z,9.00
2019-03-04T23:50:58.941Z,9.00
2019-03-04T23:53:27.468Z,9.00
2019-03-04T23:55:55.965Z,8.90
2019-03-04T23:58:24.497Z,8.90
